Time;durP1;ratioP1;P1;durP2;ratioP2;P2;SDS_P1;SDS_P2;PMS_P1;PMS_P2;Temp;Humidity;BMP_temperature;BMP_pressure;BME280_temperature;BME280_humidity;BME280_pressure;Samples;Min_cycle;Max_cycle;Signal;HPM_P1;HPM_P2
2023/08/08 00:01:07;;;;;;;4.13;2.47;;;15.50;74.80;;;;;;5017145;28;20041;-78
2023/08/08 00:03:34;;;;;;;6.38;3.10;;;15.50;74.80;;;;;;5000721;28;20080;-78
2023/08/08 00:06:00;;;;;;;5.43;2.95;;;15.50;74.90;;;;;;5017033;28;20041;-78
2023/08/08 00:08:25;;;;;;;5.53;3.20;;;15.50;75.10;;;;;;5000981;28;20048;-78
2023/08/08 00:10:51;;;;;;;4.57;3.47;;;15.40;75.20;;;;;;5017709;28;20041;-78
2023/08/08 00:13:17;;;;;;;5.18;2.83;;;15.50;75.50;;;;;;5000586;28;20049;-78
2023/08/08 00:15:43;;;;;;;4.30;2.92;;;15.50;75.50;;;;;;5016828;28;20400;-78
2023/08/08 00:18:09;;;;;;;5.65;3.25;;;15.50;75.50;;;;;;5033194;28;20052;-77
2023/08/08 00:20:34;;;;;;;4.10;2.92;;;15.50;75.60;;;;;;5016778;28;20042;-78
2023/08/08 00:23:00;;;;;;;4.40;3.35;;;15.50;75.70;;;;;;5000388;28;20142;-78
2023/08/08 00:25:26;;;;;;;5.10;3.15;;;15.50;75.80;;;;;;5016793;28;20495;-78
2023/08/08 00:27:52;;;;;;;5.57;3.55;;;15.50;76.00;;;;;;5032858;28;20621;-78
2023/08/08 00:30:17;;;;;;;4.10;2.88;;;15.50;76.10;;;;;;5016568;28;20174;-78
2023/08/08 00:32:43;;;;;;;5.25;3.50;;;15.50;76.10;;;;;;5016635;28;20068;-78
2023/08/08 00:35:09;;;;;;;4.22;2.85;;;15.50;76.20;;;;;;5016305;28;20109;-78
2023/08/08 00:37:35;;;;;;;5.05;2.45;;;15.50;76.10;;;;;;5000116;28;20049;-78
2023/08/08 00:40:00;;;;;;;3.85;2.45;;;15.50;76.10;;;;;;5016419;28;20041;-78
2023/08/08 00:42:27;;;;;;;5.05;3.20;;;15.50;76.20;;;;;;5016542;28;20045;-78
2023/08/08 00:44:53;;;;;;;6.45;2.88;;;15.50;76.10;;;;;;4999905;28;20045;-78
2023/08/08 00:47:19;;;;;;;4.60;3.30;;;15.50;76.10;;;;;;4999949;28;20087;-78
2023/08/08 00:49:46;;;;;;;4.13;3.03;;;15.50;76.20;;;;;;5016269;28;20038;-78
2023/08/08 00:52:12;;;;;;;5.55;2.88;;;15.50;76.30;;;;;;5016811;28;20037;-78
2023/08/08 00:54:38;;;;;;;6.20;3.35;;;15.50;76.30;;;;;;5032890;28;20476;-78
2023/08/08 00:57:04;;;;;;;5.35;2.90;;;15.50;76.40;;;;;;5032624;28;20073;-78
2023/08/08 00:59:31;;;;;;;4.55;3.25;;;15.50;76.50;;;;;;4999287;28;20050;-78
2023/08/08 01:01:57;;;;;;;2.92;2.20;;;15.50;76.60;;;;;;5016051;28;20511;-78
2023/08/08 01:04:25;;;;;;;5.28;3.70;;;15.50;76.60;;;;;;5016147;28;20362;-78
2023/08/08 01:07:05;;;;;;;3.20;2.55;;;15.60;76.90;;;;;;5032501;28;20041;-78
2023/08/08 01:10:07;;;;;;;3.50;2.42;;;15.50;76.80;;;;;;5015870;28;20052;-78
2023/08/08 01:12:40;;;;;;;5.47;3.20;;;15.50;76.70;;;;;;5012081;28;20060;-78
2023/08/08 01:15:08;;;;;;;4.47;2.55;;;15.50;76.60;;;;;;5032380;28;20041;-80
2023/08/08 01:17:35;;;;;;;4.53;3.13;;;15.50;76.60;;;;;;5016106;28;20037;-78
2023/08/08 01:20:04;;;;;;;3.95;2.10;;;15.50;76.60;;;;;;5015697;28;20049;-78
2023/08/08 01:22:36;;;;;;;4.43;2.78;;;15.60;76.70;;;;;;5015830;28;20064;-78
2023/08/08 01:25:02;;;;;;;4.47;2.70;;;15.60;76.70;;;;;;5015768;28;20041;-78
2023/08/08 01:27:29;;;;;;;4.88;3.42;;;15.50;76.60;;;;;;5032076;28;20049;-78
2023/08/08 01:29:54;;;;;;;5.05;3.13;;;15.50;76.50;;;;;;4983493;28;20064;-78
2023/08/08 01:32:20;;;;;;;4.90;2.85;;;15.50;76.70;;;;;;4999675;28;20041;-78
2023/08/08 01:34:46;;;;;;;5.50;2.65;;;15.50;76.80;;;;;;5015702;28;20048;-78
2023/08/08 01:37:22;;;;;;;5.65;3.22;;;15.60;76.80;;;;;;4999603;28;20400;-78
2023/08/08 01:39:50;;;;;;;7.05;2.90;;;15.50;76.70;;;;;;5015511;28;20044;-78
2023/08/08 01:42:18;;;;;;;4.13;2.78;;;15.60;76.90;;;;;;5015453;28;20046;-78
2023/08/08 01:44:44;;;;;;;5.43;3.20;;;15.60;76.90;;;;;;5015458;28;20047;-78
2023/08/08 01:47:10;;;;;;;4.15;2.50;;;15.50;76.80;;;;;;5015657;28;20175;-78
2023/08/08 01:49:35;;;;;;;6.20;2.97;;;15.60;76.80;;;;;;5015475;28;20124;-78
2023/08/08 01:52:01;;;;;;;4.05;2.58;;;15.60;76.70;;;;;;5031945;28;20044;-78
2023/08/08 01:54:27;;;;;;;4.93;3.00;;;15.50;76.60;;;;;;5031695;28;20045;-78
2023/08/08 01:56:52;;;;;;;6.57;3.20;;;15.60;76.70;;;;;;5015417;28;20045;-78
2023/08/08 01:59:18;;;;;;;5.25;3.13;;;15.60;76.80;;;;;;5015583;28;20053;-78
2023/08/08 02:01:44;;;;;;;3.75;2.30;;;15.60;77.00;;;;;;4999064;28;20037;-78
2023/08/08 02:04:09;;;;;;;6.03;2.88;;;15.60;77.00;;;;;;4999024;28;20052;-78
2023/08/08 02:06:35;;;;;;;5.90;2.50;;;15.60;76.90;;;;;;4998899;28;20037;-78
2023/08/08 02:09:01;;;;;;;3.50;2.22;;;15.60;76.90;;;;;;5015269;28;20120;-78
2023/08/08 02:11:26;;;;;;;3.67;2.58;;;15.60;76.80;;;;;;5002050;28;20040;-78
2023/08/08 02:13:52;;;;;;;4.70;2.60;;;15.60;76.90;;;;;;5035877;28;20459;-78
2023/08/08 02:16:18;;;;;;;7.28;2.60;;;15.60;76.80;;;;;;4986926;28;20539;-78
2023/08/08 02:18:43;;;;;;;4.72;2.17;;;15.60;76.80;;;;;;5019399;28;20041;-78
2023/08/08 02:21:09;;;;;;;4.97;2.50;;;15.60;76.80;;;;;;5002768;28;20554;-78
2023/08/08 02:23:35;;;;;;;5.07;2.88;;;15.60;76.80;;;;;;5018834;28;20048;-78
2023/08/08 02:26:01;;;;;;;3.17;2.03;;;15.60;77.00;;;;;;4986632;28;20445;-78
2023/08/08 02:28:27;;;;;;;4.47;2.85;;;15.60;77.00;;;;;;5018829;28;20096;-78
2023/08/08 02:30:53;;;;;;;4.90;2.45;;;15.60;77.10;;;;;;5002847;28;20041;-78
2023/08/08 02:33:19;;;;;;;8.90;2.90;;;15.60;77.10;;;;;;5019633;28;20144;-78
2023/08/08 02:35:45;;;;;;;6.22;2.53;;;15.60;77.20;;;;;;5018668;28;20512;-78
2023/08/08 02:38:10;;;;;;;6.15;2.58;;;15.60;77.10;;;;;;5002463;28;20086;-78
2023/08/08 02:40:36;;;;;;;6.38;3.00;;;15.60;77.10;;;;;;5035266;28;20042;-78
2023/08/08 02:43:02;;;;;;;4.80;2.75;;;15.60;77.30;;;;;;5018662;28;20037;-78
2023/08/08 02:45:28;;;;;;;4.85;2.80;;;15.60;77.30;;;;;;5034986;28;20060;-78
2023/08/08 02:47:53;;;;;;;7.20;2.63;;;15.60;77.20;;;;;;5018579;28;20117;-78
2023/08/08 02:50:19;;;;;;;4.55;3.08;;;15.60;77.30;;;;;;5018757;28;20087;-78
2023/08/08 02:52:45;;;;;;;3.90;2.47;;;15.60;77.30;;;;;;5018503;28;20489;-78
2023/08/08 02:55:11;;;;;;;4.85;2.65;;;15.60;77.40;;;;;;5018240;28;20041;-78
2023/08/08 02:57:36;;;;;;;5.82;3.00;;;15.60;77.30;;;;;;5018302;28;20041;-77
2023/08/08 03:00:04;;;;;;;5.90;3.00;;;15.50;77.20;;;;;;5001827;28;20044;-78
2023/08/08 03:02:29;;;;;;;4.38;2.63;;;15.50;77.10;;;;;;5034684;28;20107;-78
2023/08/08 03:04:55;;;;;;;4.88;2.53;;;15.50;77.00;;;;;;5034610;28;20041;-77
2023/08/08 03:07:23;;;;;;;4.63;2.92;;;15.50;77.00;;;;;;5002097;28;20042;-78
2023/08/08 03:09:49;;;;;;;6.93;2.80;;;15.50;77.00;;;;;;5034359;28;20037;-78
2023/08/08 03:12:14;;;;;;;5.70;2.85;;;15.50;77.00;;;;;;5018127;28;20132;-78
2023/08/08 03:14:40;;;;;;;5.72;2.40;;;15.50;77.00;;;;;;5017862;28;20037;-78
2023/08/08 03:17:06;;;;;;;4.15;2.50;;;15.50;77.00;;;;;;5017564;28;20041;-78
2023/08/08 03:19:31;;;;;;;5.10;2.60;;;15.40;76.90;;;;;;5017579;28;20098;-78
2023/08/08 03:21:57;;;;;;;5.72;2.70;;;15.50;77.00;;;;;;5000643;28;20132;-78
2023/08/08 03:24:23;;;;;;;4.82;2.42;;;15.40;76.90;;;;;;5001254;28;20124;-78
2023/08/08 03:26:48;;;;;;;5.90;2.67;;;15.40;76.90;;;;;;5001152;28;20037;-78
2023/08/08 03:29:14;;;;;;;5.53;1.95;;;15.40;76.90;;;;;;5017120;28;20060;-78
2023/08/08 03:31:40;;;;;;;5.15;2.80;;;15.40;76.80;;;;;;5017666;28;20092;-78
2023/08/08 03:34:06;;;;;;;4.10;1.90;;;15.40;76.60;;;;;;5017536;28;20177;-78
2023/08/08 03:36:31;;;;;;;7.00;2.40;;;15.40;76.50;;;;;;5017621;28;20067;-78
2023/08/08 03:38:57;;;;;;;7.25;1.88;;;15.30;76.20;;;;;;5017799;28;20041;-78
2023/08/08 03:41:23;;;;;;;5.35;1.90;;;15.30;76.10;;;;;;5017429;28;20193;-78
2023/08/08 03:43:49;;;;;;;3.78;1.83;;;15.30;75.90;;;;;;5017561;28;20040;-78
2023/08/08 03:46:14;;;;;;;5.75;2.03;;;15.30;75.80;;;;;;5017594;28;20045;-78
2023/08/08 03:48:40;;;;;;;4.75;1.83;;;15.30;75.70;;;;;;5001773;28;20477;-78
2023/08/08 03:51:06;;;;;;;5.28;1.58;;;15.30;75.70;;;;;;5017451;28;20548;-78
2023/08/08 03:53:32;;;;;;;5.20;1.52;;;15.30;75.60;;;;;;5017489;28;20485;-78
2023/08/08 03:55:58;;;;;;;4.00;1.70;;;15.20;75.40;;;;;;5033758;28;20045;-78
2023/08/08 03:58:24;;;;;;;4.32;1.48;;;15.30;75.40;;;;;;5017288;28;20041;-78
2023/08/08 04:00:50;;;;;;;3.88;1.50;;;15.20;75.30;;;;;;5000955;28;20128;-78
2023/08/08 04:03:16;;;;;;;3.50;1.40;;;15.20;75.10;;;;;;5033586;28;20052;-78
2023/08/08 04:05:46;;;;;;;3.60;1.52;;;15.20;75.00;;;;;;5017217;28;20132;-78
2023/08/08 04:08:13;;;;;;;2.97;1.20;;;15.20;75.00;;;;;;5000764;28;20099;-78
2023/08/08 04:10:39;;;;;;;5.60;1.67;;;15.20;74.90;;;;;;5016945;28;20037;-78
2023/08/08 04:13:05;;;;;;;5.03;1.50;;;15.20;74.80;;;;;;5000820;28;20048;-78
2023/08/08 04:15:30;;;;;;;3.65;1.10;;;15.20;74.70;;;;;;5033380;28;20049;-78
2023/08/08 04:17:56;;;;;;;3.40;1.15;;;15.20;74.70;;;;;;5017388;28;20083;-78
2023/08/08 04:20:22;;;;;;;8.60;1.70;;;15.20;74.60;;;;;;5000773;28;20041;-78
2023/08/08 04:22:48;;;;;;;3.42;1.40;;;15.20;74.60;;;;;;5033150;28;20515;-78
2023/08/08 04:25:14;;;;;;;3.45;1.20;;;15.20;74.50;;;;;;5016852;28;20029;-78
2023/08/08 04:27:40;;;;;;;4.15;1.33;;;15.20;74.50;;;;;;5033166;28;20033;-78
2023/08/08 04:30:07;;;;;;;6.28;1.30;;;15.10;74.40;;;;;;5016517;28;20052;-78
2023/08/08 04:32:33;;;;;;;3.75;1.40;;;15.10;74.40;;;;;;5016073;28;20084;-78
2023/08/08 04:34:58;;;;;;;3.08;1.25;;;15.10;74.50;;;;;;4983790;28;20077;-78
2023/08/08 04:37:24;;;;;;;6.18;1.95;;;15.10;74.60;;;;;;5016865;28;20124;-78
2023/08/08 04:39:50;;;;;;;4.97;1.48;;;15.10;74.60;;;;;;5016846;28;20132;-78
2023/08/08 04:42:16;;;;;;;5.50;1.50;;;15.10;74.70;;;;;;4983946;28;20633;-78
2023/08/08 04:44:41;;;;;;;3.53;1.50;;;15.10;74.70;;;;;;5000126;28;20046;-78
2023/08/08 04:47:07;;;;;;;3.25;0.98;;;15.10;74.80;;;;;;4984026;28;20037;-78
2023/08/08 04:49:33;;;;;;;2.88;0.88;;;15.10;75.00;;;;;;5016444;28;20484;-78
2023/08/08 04:51:59;;;;;;;2.40;1.02;;;15.10;75.00;;;;;;5016278;28;20099;-78
2023/08/08 04:54:24;;;;;;;3.03;1.10;;;15.10;75.10;;;;;;5000162;28;20041;-78
2023/08/08 04:56:50;;;;;;;3.42;1.10;;;15.10;75.30;;;;;;5016455;28;20439;-78
2023/08/08 04:59:16;;;;;;;6.35;1.35;;;15.10;75.60;;;;;;5016233;28;20135;-77
2023/08/08 05:01:41;;;;;;;4.05;1.70;;;15.20;76.00;;;;;;5016315;28;20045;-77
2023/08/08 05:04:07;;;;;;;2.90;1.40;;;15.10;76.40;;;;;;4999894;28;20179;-78
2023/08/08 05:06:33;;;;;;;6.68;1.48;;;15.20;76.70;;;;;;5016207;28;20033;-78
2023/08/08 05:08:58;;;;;;;6.13;1.35;;;15.20;77.00;;;;;;5015986;28;20550;-78
2023/08/08 05:11:24;;;;;;;3.75;1.38;;;15.20;77.30;;;;;;5015926;28;20079;-78
2023/08/08 05:13:50;;;;;;;5.47;1.50;;;15.20;77.70;;;;;;5015458;28;20045;-78
2023/08/08 05:16:15;;;;;;;3.97;1.48;;;15.20;77.80;;;;;;4999159;28;20052;-78
2023/08/08 05:18:44;;;;;;;5.05;1.30;;;15.20;77.90;;;;;;4999531;28;20056;-78
2023/08/08 05:21:09;;;;;;;5.93;1.40;;;15.20;77.70;;;;;;5000124;28;20049;-78
2023/08/08 05:23:35;;;;;;;5.00;1.67;;;15.20;77.70;;;;;;5015768;28;20045;-78
2023/08/08 05:26:01;;;;;;;3.08;1.00;;;15.20;77.60;;;;;;4999597;28;20120;-77
2023/08/08 05:28:27;;;;;;;3.22;1.00;;;15.20;77.60;;;;;;5015434;28;20065;-78
2023/08/08 05:30:53;;;;;;;2.63;0.90;;;15.20;77.50;;;;;;5032313;28;20103;-78
2023/08/08 05:33:18;;;;;;;2.28;0.98;;;15.30;77.40;;;;;;5015650;28;20048;-77
2023/08/08 05:35:44;;;;;;;4.30;1.30;;;15.30;77.40;;;;;;4999299;28;20123;-78
2023/08/08 05:38:10;;;;;;;2.67;1.00;;;15.30;77.40;;;;;;5032198;28;20045;-78
2023/08/08 05:40:36;;;;;;;4.53;1.63;;;15.30;77.50;;;;;;4999135;28;20044;-78
2023/08/08 05:43:03;;;;;;;4.88;1.58;;;15.30;77.70;;;;;;5031825;28;20485;-78
2023/08/08 05:45:29;;;;;;;3.55;1.30;;;15.30;77.90;;;;;;5004490;28;20124;-79
2023/08/08 05:47:56;;;;;;;4.88;1.65;;;15.30;77.90;;;;;;5005870;28;20556;-79
2023/08/08 05:50:24;;;;;;;4.38;1.35;;;15.40;78.10;;;;;;5022150;28;20049;-78
2023/08/08 05:52:50;;;;;;;4.38;1.52;;;15.40;78.50;;;;;;5005656;28;20049;-79
2023/08/08 05:55:15;;;;;;;8.30;1.98;;;15.40;79.10;;;;;;5005442;28;20063;-78
2023/08/08 05:57:41;;;;;;;4.57;1.00;;;15.50;79.60;;;;;;5005573;28;20052;-79
2023/08/08 06:00:10;;;;;;;4.70;1.67;;;15.80;80.20;;;;;;4989624;28;20128;-79
2023/08/08 06:02:36;;;;;;;4.70;1.30;;;16.00;80.20;;;;;;5006609;28;20409;-79
2023/08/08 06:05:02;;;;;;;3.83;1.25;;;16.30;79.80;;;;;;5021954;28;20033;-79
2023/08/08 06:07:28;;;;;;;3.67;1.38;;;16.70;79.30;;;;;;5005511;28;20045;-79
2023/08/08 06:09:53;;;;;;;6.00;1.52;;;17.10;78.70;;;;;;5038601;28;20172;-78
2023/08/08 06:12:19;;;;;;;4.60;1.30;;;17.50;77.80;;;;;;5005380;28;20435;-79
2023/08/08 06:14:45;;;;;;;5.97;1.20;;;18.00;76.20;;;;;;5005817;28;20187;-79
2023/08/08 06:17:10;;;;;;;3.35;1.17;;;18.40;74.80;;;;;;5021888;28;20485;-79
2023/08/08 06:19:36;;;;;;;5.60;1.27;;;18.80;73.30;;;;;;5005462;28;20392;-79
2023/08/08 06:22:03;;;;;;;3.63;1.10;;;19.20;71.70;;;;;;5021843;28;20052;-79
2023/08/08 06:24:29;;;;;;;4.05;1.10;;;19.50;70.40;;;;;;4989664;28;20546;-79
2023/08/08 06:26:54;;;;;;;5.30;1.40;;;19.80;68.80;;;;;;5021879;28;20374;-79
2023/08/08 06:29:20;;;;;;;5.13;1.23;;;20.20;67.00;;;;;;5037891;28;20056;-79
2023/08/08 06:31:46;;;;;;;4.93;1.60;;;20.40;65.60;;;;;;5021643;28;20045;-79
2023/08/08 06:34:11;;;;;;;3.15;0.93;;;20.60;64.70;;;;;;5005349;28;20041;-80
2023/08/08 06:36:38;;;;;;;5.18;1.25;;;20.90;63.80;;;;;;5021876;28;20049;-80
2023/08/08 06:39:04;;;;;;;3.90;0.90;;;21.10;63.10;;;;;;4989343;28;20038;-79
2023/08/08 06:41:30;;;;;;;6.57;1.30;;;21.30;62.30;;;;;;5005520;28;20099;-79
2023/08/08 06:43:55;;;;;;;2.80;0.93;;;21.60;61.50;;;;;;5021501;28;20393;-79
2023/08/08 06:46:21;;;;;;;5.57;1.30;;;21.80;60.80;;;;;;5021566;28;20041;-80
2023/08/08 06:48:47;;;;;;;3.85;1.10;;;22.10;59.60;;;;;;5005542;28;20128;-79
2023/08/08 06:51:13;;;;;;;3.63;1.20;;;22.20;58.50;;;;;;5038001;28;20037;-79
2023/08/08 06:53:39;;;;;;;4.30;1.20;;;22.40;57.90;;;;;;5005188;28;20124;-79
2023/08/08 06:56:04;;;;;;;5.03;1.25;;;22.50;57.80;;;;;;5035832;28;20037;-79
2023/08/08 06:58:30;;;;;;;4.57;1.27;;;22.70;57.20;;;;;;5018364;28;20049;-79
2023/08/08 07:00:56;;;;;;;3.20;0.93;;;22.90;56.60;;;;;;5018153;28;20042;-80
2023/08/08 07:03:21;;;;;;;6.38;0.95;;;23.00;56.10;;;;;;5002248;28;20120;-79
2023/08/08 07:05:51;;;;;;;3.22;1.05;;;23.10;55.40;;;;;;5018178;28;20042;-79
2023/08/08 07:08:18;;;;;;;5.25;1.20;;;23.20;55.30;;;;;;5018705;28;20496;-79
2023/08/08 07:10:44;;;;;;;4.40;1.42;;;23.40;55.10;;;;;;5034907;28;20045;-80
2023/08/08 07:13:10;;;;;;;3.63;0.80;;;23.50;54.00;;;;;;5034911;28;20164;-79
2023/08/08 07:15:35;;;;;;;4.60;1.30;;;23.50;52.90;;;;;;5034613;28;20041;-79
2023/08/08 07:18:01;;;;;;;4.40;1.08;;;23.50;52.60;;;;;;5018387;28;20049;-79
2023/08/08 07:20:27;;;;;;;3.28;1.10;;;23.50;52.90;;;;;;5018068;28;20041;-79
2023/08/08 07:22:53;;;;;;;4.28;1.00;;;23.60;52.70;;;;;;5017763;28;20114;-79
2023/08/08 07:25:18;;;;;;;4.20;0.98;;;23.60;52.10;;;;;;5034539;28;20141;-80
2023/08/08 07:27:44;;;;;;;5.20;1.00;;;23.60;51.80;;;;;;5017765;28;20124;-79
2023/08/08 07:30:11;;;;;;;5.93;1.42;;;23.60;52.20;;;;;;4984952;28;20091;-79
2023/08/08 07:32:37;;;;;;;6.43;1.38;;;23.60;52.20;;;;;;5018324;28;20575;-79
2023/08/08 07:35:05;;;;;;;3.25;1.05;;;23.50;51.30;;;;;;5017875;28;20132;-79
2023/08/08 07:37:32;;;;;;;4.45;0.90;;;23.40;51.40;;;;;;5018080;28;20121;-80
2023/08/08 07:39:58;;;;;;;1.95;0.73;;;23.30;51.50;;;;;;5001311;28;20128;-79
2023/08/08 07:42:23;;;;;;;3.08;0.80;;;23.10;51.30;;;;;;5001141;28;20132;-79
2023/08/08 07:44:49;;;;;;;5.00;1.42;;;22.90;52.00;;;;;;5033889;28;20397;-79
2023/08/08 07:47:15;;;;;;;3.45;1.00;;;22.70;51.40;;;;;;5033668;28;20038;-79
2023/08/08 07:49:40;;;;;;;3.88;0.85;;;22.50;51.50;;;;;;4985018;28;20037;-79
2023/08/08 07:52:07;;;;;;;2.55;0.75;;;22.30;51.90;;;;;;5033932;28;20124;-79
2023/08/08 07:54:33;;;;;;;3.83;0.85;;;22.00;52.40;;;;;;5033864;28;20397;-79
2023/08/08 07:56:59;;;;;;;3.88;0.80;;;21.80;52.70;;;;;;5017291;28;20037;-80
2023/08/08 07:59:25;;;;;;;2.58;0.77;;;21.60;53.10;;;;;;5000814;28;20052;-79
2023/08/08 08:01:51;;;;;;;2.92;0.80;;;21.50;53.50;;;;;;5017212;28;20037;-80
2023/08/08 08:04:16;;;;;;;4.53;1.05;;;21.30;54.20;;;;;;4984634;28;20041;-79
2023/08/08 08:06:42;;;;;;;7.80;1.48;;;21.10;54.70;;;;;;4984928;28;20095;-79
2023/08/08 08:09:08;;;;;;;4.70;1.10;;;21.00;55.40;;;;;;4999317;28;20405;-79
2023/08/08 08:11:34;;;;;;;3.22;1.02;;;20.80;55.80;;;;;;4984473;28;20124;-78
2023/08/08 08:13:59;;;;;;;7.03;1.40;;;20.70;56.30;;;;;;5000691;28;20072;-79
2023/08/08 08:16:25;;;;;;;5.80;1.35;;;20.60;56.50;;;;;;5033622;28;20048;-79
2023/08/08 08:18:51;;;;;;;4.32;1.10;;;20.50;56.90;;;;;;5033248;28;20398;-79
2023/08/08 08:21:19;;;;;;;3.50;1.05;;;20.50;57.30;;;;;;5017038;28;20041;-80
2023/08/08 08:23:46;;;;;;;5.78;1.20;;;20.40;57.50;;;;;;5000597;28;20046;-79
2023/08/08 08:26:12;;;;;;;5.93;1.25;;;20.30;57.40;;;;;;5016627;28;20041;-78
2023/08/08 08:28:39;;;;;;;5.30;1.45;;;20.20;57.50;;;;;;5016621;28;20045;-79
2023/08/08 08:31:07;;;;;;;3.25;1.10;;;20.20;57.80;;;;;;5032740;28;20413;-79
2023/08/08 08:33:32;;;;;;;3.33;1.10;;;20.10;58.10;;;;;;5016111;28;20047;-79
2023/08/08 08:35:58;;;;;;;2.35;1.02;;;20.00;58.30;;;;;;5016061;28;20124;-79
2023/08/08 08:38:24;;;;;;;5.00;0.90;;;19.90;58.70;;;;;;5032388;28;20037;-79
2023/08/08 08:40:53;;;;;;;4.72;1.08;;;19.90;58.90;;;;;;5015798;28;20048;-80
2023/08/08 08:43:19;;;;;;;4.82;1.20;;;19.80;58.90;;;;;;5000299;28;20077;-78
2023/08/08 08:45:50;;;;;;;3.13;0.75;;;19.80;59.00;;;;;;5016200;28;20095;-78
2023/08/08 08:48:17;;;;;;;3.65;0.98;;;19.80;58.80;;;;;;5032747;28;20381;-79
2023/08/08 08:50:45;;;;;;;5.15;1.05;;;19.70;58.80;;;;;;5016277;28;20484;-81
2023/08/08 08:53:13;;;;;;;4.40;0.85;;;19.60;58.80;;;;;;5032854;28;20095;-81
2023/08/08 08:55:39;;;;;;;3.38;1.13;;;19.60;59.30;;;;;;5016283;28;20083;-80
2023/08/08 08:58:06;;;;;;;4.07;1.00;;;19.60;59.90;;;;;;5032485;28;20052;-80
2023/08/08 09:00:32;;;;;;;4.53;1.10;;;19.70;59.80;;;;;;4999710;28;20488;-80
2023/08/08 09:02:58;;;;;;;3.83;1.08;;;19.60;59.70;;;;;;5016056;28;20049;-82
2023/08/08 09:05:25;;;;;;;5.55;1.00;;;19.70;60.00;;;;;;4999700;28;20147;-80
2023/08/08 09:07:51;;;;;;;6.80;1.25;;;19.70;60.00;;;;;;5016115;28;20031;-79
2023/08/08 09:10:17;;;;;;;5.70;0.95;;;19.80;59.80;;;;;;5032376;28;20553;-78
2023/08/08 09:12:44;;;;;;;3.67;1.08;;;19.80;59.60;;;;;;5015789;28;20045;-77
2023/08/08 09:15:10;;;;;;;5.78;1.05;;;19.80;60.00;;;;;;5015664;28;20054;-78
2023/08/08 09:17:40;;;;;;;3.50;1.15;;;19.80;60.40;;;;;;5032036;28;20045;-81
2023/08/08 09:20:07;;;;;;;6.03;1.35;;;19.70;61.00;;;;;;5015576;28;20042;-77
2023/08/08 09:22:32;;;;;;;3.95;1.20;;;19.80;62.80;;;;;;5031086;28;20057;-77
2023/08/08 09:24:58;;;;;;;4.97;1.30;;;19.70;63.30;;;;;;5014747;28;20037;-77
2023/08/08 09:27:24;;;;;;;4.60;1.23;;;19.80;63.50;;;;;;5031554;28;20043;-77
2023/08/08 09:29:50;;;;;;;4.13;1.25;;;19.90;63.40;;;;;;5015450;28;20425;-77
2023/08/08 09:32:17;;;;;;;3.78;1.00;;;19.90;63.30;;;;;;5031963;28;20052;-77
2023/08/08 09:34:43;;;;;;;4.07;0.95;;;20.00;62.80;;;;;;5015803;28;20041;-77
2023/08/08 09:37:10;;;;;;;4.15;1.20;;;20.10;62.30;;;;;;5015756;28;20136;-77
2023/08/08 09:39:36;;;;;;;5.25;0.98;;;20.10;61.80;;;;;;5031992;28;20045;-75
2023/08/08 09:42:04;;;;;;;3.83;1.10;;;20.10;61.20;;;;;;5031768;28;20116;-75
2023/08/08 09:44:30;;;;;;;4.63;0.80;;;20.10;61.20;;;;;;5015500;28;20042;-76
2023/08/08 09:46:56;;;;;;;3.78;0.90;;;20.10;61.40;;;;;;5015288;28;20045;-76
2023/08/08 09:49:22;;;;;;;2.25;0.70;;;20.10;61.50;;;;;;5031821;28;20128;-76
2023/08/08 09:51:49;;;;;;;3.80;1.50;;;20.00;61.90;;;;;;5032025;28;20108;-76
2023/08/08 09:54:16;;;;;;;7.13;1.30;;;20.10;62.70;;;;;;4999414;28;20061;-76
2023/08/08 09:56:42;;;;;;;3.65;1.23;;;20.10;63.40;;;;;;5031952;28;20080;-77
2023/08/08 09:59:11;;;;;;;4.88;0.85;;;20.20;63.40;;;;;;5031502;28;20038;-78
2023/08/08 10:01:39;;;;;;;2.40;0.68;;;20.40;63.30;;;;;;5014881;28;20041;-76
2023/08/08 10:04:06;;;;;;;3.75;1.20;;;20.50;63.50;;;;;;5031107;28;20050;-77
2023/08/08 10:06:32;;;;;;;2.65;0.88;;;20.70;62.50;;;;;;5031213;28;20504;-76
2023/08/08 10:08:58;;;;;;;6.80;1.15;;;20.70;60.90;;;;;;5031602;28;20041;-77
2023/08/08 10:11:25;;;;;;;4.82;1.30;;;20.80;59.70;;;;;;5015512;28;20041;-78
2023/08/08 10:13:53;;;;;;;5.47;1.23;;;20.70;59.30;;;;;;5031619;28;20132;-77
2023/08/08 10:16:19;;;;;;;4.47;1.05;;;20.80;59.70;;;;;;5015138;28;20396;-77
2023/08/08 10:18:46;;;;;;;4.40;1.20;;;20.80;59.40;;;;;;5031534;28;20038;-77
2023/08/08 10:21:12;;;;;;;3.65;1.33;;;20.80;59.50;;;;;;5031448;28;20041;-78
2023/08/08 10:23:39;;;;;;;4.28;1.60;;;20.80;59.20;;;;;;5014803;28;20481;-78
2023/08/08 10:26:17;;;;;;;5.50;1.70;;;20.80;58.70;;;;;;5031323;28;20041;-77
2023/08/08 10:28:54;;;;;;;5.43;1.30;;;20.70;59.00;;;;;;5014949;28;20057;-77
2023/08/08 10:31:21;;;;;;;4.65;1.10;;;20.70;59.30;;;;;;5032336;28;20052;-78
2023/08/08 10:33:46;;;;;;;5.43;1.45;;;20.60;59.10;;;;;;5018708;28;20488;-77
2023/08/08 10:36:15;;;;;;;5.18;1.10;;;20.60;59.20;;;;;;5035173;28;20095;-78
2023/08/08 10:38:52;;;;;;;5.57;1.25;;;20.70;59.50;;;;;;5035367;28;20045;-78
2023/08/08 10:41:20;;;;;;;3.78;1.08;;;20.70;58.70;;;;;;5018800;28;20060;-78
2023/08/08 10:43:57;;;;;;;5.22;1.15;;;20.60;58.30;;;;;;5018413;28;20041;-79
2023/08/08 10:46:28;;;;;;;4.90;1.17;;;20.50;58.40;;;;;;5035184;28;20125;-77
2023/08/08 10:48:59;;;;;;;4.10;1.25;;;20.40;58.80;;;;;;5018451;28;20477;-78
2023/08/08 10:51:47;;;;;;;5.10;1.45;;;20.40;59.00;;;;;;5035116;28;20123;-78
2023/08/08 10:54:15;;;;;;;4.35;1.42;;;20.40;59.40;;;;;;5035003;28;20639;-79
2023/08/08 10:56:47;;;;;;;5.00;1.60;;;20.30;59.10;;;;;;5034972;28;20041;-78
2023/08/08 10:59:19;;;;;;;3.25;1.05;;;20.30;58.90;;;;;;5018233;28;20037;-78
2023/08/08 11:01:46;;;;;;;3.50;1.17;;;20.20;58.80;;;;;;5034618;28;20041;-78
2023/08/08 11:04:13;;;;;;;7.03;1.30;;;20.10;58.10;;;;;;5034464;28;20055;-77
2023/08/08 11:06:39;;;;;;;3.60;1.10;;;20.00;58.10;;;;;;5018067;28;20116;-77
2023/08/08 11:09:06;;;;;;;6.47;1.50;;;19.90;58.70;;;;;;5034824;28;20049;-77
2023/08/08 11:11:43;;;;;;;4.22;1.10;;;19.90;59.30;;;;;;5034164;28;20460;-76
2023/08/08 11:14:22;;;;;;;3.03;0.90;;;19.90;59.60;;;;;;5017883;28;20077;-77
2023/08/08 11:16:49;;;;;;;4.45;1.10;;;20.00;59.50;;;;;;5034034;28;20549;-77
2023/08/08 11:19:16;;;;;;;6.90;1.40;;;20.10;59.10;;;;;;5017843;28;20132;-77
2023/08/08 11:21:44;;;;;;;2.97;1.13;;;20.10;58.60;;;;;;5034122;28;20041;-77
2023/08/08 11:24:11;;;;;;;5.13;1.27;;;20.20;58.60;;;;;;5017690;28;20042;-77
2023/08/08 11:26:37;;;;;;;5.55;1.40;;;20.30;58.10;;;;;;5034111;28;20076;-77
2023/08/08 11:29:07;;;;;;;5.00;1.38;;;20.20;57.40;;;;;;5017521;28;20489;-77
2023/08/08 11:31:37;;;;;;;5.13;1.58;;;20.20;57.30;;;;;;5001749;28;20041;-77
2023/08/08 11:34:04;;;;;;;4.22;1.30;;;20.20;57.10;;;;;;5034368;28;20037;-77
2023/08/08 11:36:34;;;;;;;3.53;1.30;;;20.20;57.00;;;;;;5034441;28;20128;-77
2023/08/08 11:39:07;;;;;;;4.70;1.75;;;20.20;57.70;;;;;;5017906;28;20043;-77
2023/08/08 11:41:35;;;;;;;5.10;1.10;;;20.20;57.30;;;;;;5033841;28;20056;-77
2023/08/08 11:44:03;;;;;;;5.88;1.58;;;20.20;57.50;;;;;;5033497;28;20072;-78
2023/08/08 11:46:30;;;;;;;3.05;1.45;;;20.20;57.50;;;;;;5017411;28;20075;-77
2023/08/08 11:49:06;;;;;;;5.15;1.05;;;20.20;57.10;;;;;;5017748;28;20079;-77
2023/08/08 11:51:34;;;;;;;3.50;1.45;;;20.10;56.50;;;;;;5033719;28;20037;-78
2023/08/08 11:54:01;;;;;;;4.88;1.30;;;20.10;57.30;;;;;;5033951;28;20060;-77
2023/08/08 11:56:26;;;;;;;4.13;1.15;;;20.10;56.90;;;;;;5016944;28;20048;-77
2023/08/08 11:58:55;;;;;;;4.20;1.23;;;20.10;56.60;;;;;;5017318;28;20041;-78
2023/08/08 12:01:25;;;;;;;5.93;1.20;;;20.10;56.40;;;;;;5017414;28;20047;-77
2023/08/08 12:03:51;;;;;;;4.20;1.20;;;20.10;56.70;;;;;;5016919;28;20042;-78
2023/08/08 12:06:18;;;;;;;2.92;0.80;;;20.10;56.20;;;;;;5017261;28;20045;-77
2023/08/08 12:08:45;;;;;;;4.97;1.15;;;20.20;56.40;;;;;;5016942;28;20477;-77
2023/08/08 12:11:12;;;;;;;3.00;1.00;;;20.20;56.40;;;;;;5033242;28;20037;-78
2023/08/08 12:13:40;;;;;;;6.75;1.48;;;20.20;55.90;;;;;;5000969;28;20049;-77
2023/08/08 12:16:11;;;;;;;3.17;1.00;;;20.20;56.20;;;;;;5033291;28;20053;-77
2023/08/08 12:18:38;;;;;;;5.30;1.35;;;20.20;55.50;;;;;;5001106;28;20041;-77
2023/08/08 12:21:07;;;;;;;5.20;0.98;;;20.20;55.30;;;;;;5033013;28;20132;-78
2023/08/08 12:23:34;;;;;;;3.47;1.73;;;20.20;55.70;;;;;;5016996;28;20052;-78
2023/08/08 12:26:03;;;;;;;3.88;1.02;;;20.20;56.10;;;;;;5033406;28;20513;-77
2023/08/08 12:28:29;;;;;;;5.07;2.13;;;20.20;56.20;;;;;;5032775;28;20484;-77
2023/08/08 12:30:55;;;;;;;5.40;1.30;;;20.30;55.90;;;;;;5000381;28;20042;-78
2023/08/08 12:33:20;;;;;;;6.75;1.75;;;20.30;55.20;;;;;;5032742;28;20517;-78
2023/08/08 12:35:47;;;;;;;7.68;1.80;;;20.40;54.60;;;;;;5016643;28;20132;-77
2023/08/08 12:38:14;;;;;;;3.30;0.85;;;20.30;54.20;;;;;;5032765;28;20051;-77
2023/08/08 12:40:39;;;;;;;5.18;1.25;;;20.30;54.40;;;;;;5016475;28;20041;-77
2023/08/08 12:43:05;;;;;;;5.40;1.40;;;20.30;54.90;;;;;;5016499;28;20053;-78
2023/08/08 12:45:31;;;;;;;4.80;0.90;;;20.30;55.40;;;;;;4999884;28;20090;-78